createdAt,value
2017-11-25T00:00:39.447Z,100842.19
2017-11-25T00:03:07.085Z,100840.86
2017-11-25T00:05:34.755Z,100833.71
2017-11-25T00:08:02.350Z,100836.45
2017-11-25T00:10:30.229Z,100848.66
2017-11-25T00:12:57.853Z,100853.98
2017-11-25T00:15:25.460Z,100858.27
2017-11-25T00:17:53.064Z,100862.03
2017-11-25T00:20:20.697Z,100865.55
2017-11-25T00:22:48.285Z,100855.01
2017-11-25T00:25:15.888Z,100849.27
2017-11-25T00:27:43.505Z,100840.37
2017-11-25T00:30:11.111Z,100830.80
2017-11-25T00:32:38.727Z,100832.17
2017-11-25T00:35:06.371Z,100823.64
2017-11-25T00:37:33.953Z,100818.14
2017-11-25T00:40:01.561Z,100818.60
2017-11-25T00:42:29.197Z,100824.61
2017-11-25T00:44:56.921Z,100818.80
2017-11-25T00:47:24.576Z,100809.95
2017-11-25T00:49:52.226Z,100812.34
2017-11-25T00:52:19.931Z,100816.26
2017-11-25T00:54:47.541Z,100813.88
2017-11-25T00:57:15.430Z,100810.16
2017-11-25T00:59:43.005Z,100807.84
2017-11-25T01:02:10.593Z,100799.22
2017-11-25T01:04:38.225Z,100798.49
2017-11-25T01:07:05.833Z,100810.30
2017-11-25T01:09:33.737Z,100809.13
2017-11-25T01:12:01.364Z,100799.06
2017-11-25T01:14:29.271Z,100794.13
2017-11-25T01:16:56.862Z,100796.14
2017-11-25T01:19:24.498Z,100785.90
2017-11-25T01:21:52.094Z,100778.45
2017-11-25T01:24:19.683Z,100769.49
2017-11-25T01:26:47.343Z,100784.94
2017-11-25T01:29:14.937Z,100772.56
2017-11-25T01:31:42.580Z,100780.49
2017-11-25T01:34:10.213Z,100772.75
2017-11-25T01:36:37.805Z,100772.07
2017-11-25T01:39:05.421Z,100771.84
2017-11-25T01:41:33.054Z,100758.86
2017-11-25T01:44:00.653Z,100756.20
2017-11-25T01:46:28.590Z,100755.14
2017-11-25T01:48:56.213Z,100759.62
2017-11-25T01:51:23.802Z,100756.13
2017-11-25T01:53:51.670Z,100761.44
2017-11-25T01:56:19.645Z,100766.19
2017-11-25T01:58:47.234Z,100764.62
2017-11-25T02:01:14.829Z,100751.83
2017-11-25T02:03:42.463Z,100757.14
2017-11-25T02:06:10.045Z,100754.75
2017-11-25T02:08:37.628Z,100754.41
2017-11-25T02:11:05.267Z,100756.75
2017-11-25T02:13:32.857Z,100746.62
2017-11-25T02:16:00.435Z,100744.30
2017-11-25T02:18:28.069Z,100742.13
2017-11-25T02:20:55.662Z,100739.32
2017-11-25T02:23:23.251Z,100736.47
2017-11-25T02:25:50.886Z,100729.85
2017-11-25T02:28:18.473Z,100721.30
2017-11-25T02:30:46.089Z,100724.80
2017-11-25T02:33:13.713Z,100722.30
2017-11-25T02:35:41.318Z,100718.72
2017-11-25T02:38:08.918Z,100715.91
2017-11-25T02:40:36.865Z,100715.25
2017-11-25T02:43:04.462Z,100715.77
2017-11-25T02:45:32.064Z,100702.06
2017-11-25T02:47:59.693Z,100702.74
2017-11-25T02:50:27.321Z,100696.59
2017-11-25T02:52:54.936Z,100687.52
2017-11-25T02:55:22.572Z,100678.63
2017-11-25T02:57:50.158Z,100667.98
2017-11-25T03:00:17.746Z,100662.51
2017-11-25T03:02:45.368Z,100652.05
2017-11-25T03:05:12.985Z,100652.37
2017-11-25T03:07:40.574Z,100645.40
2017-11-25T03:10:08.510Z,100634.77
2017-11-25T03:12:36.111Z,100632.52
2017-11-25T03:15:04.179Z,100631.38
2017-11-25T03:17:31.816Z,100632.92
2017-11-25T03:19:59.415Z,100628.02
2017-11-25T03:22:27.054Z,100622.88
2017-11-25T03:24:54.695Z,100618.23
2017-11-25T03:27:22.295Z,100609.59
2017-11-25T03:29:49.912Z,100618.08
2017-11-25T03:32:17.844Z,100616.11
2017-11-25T03:34:45.443Z,100619.87
2017-11-25T03:37:13.129Z,100609.89
2017-11-25T03:39:41.500Z,100595.69
2017-11-25T03:42:09.093Z,100594.86
2017-11-25T03:44:36.693Z,100595.35
2017-11-25T03:47:04.593Z,100585.31
2017-11-25T03:49:32.178Z,100580.41
2017-11-25T03:51:59.787Z,100585.47
2017-11-25T03:54:27.472Z,100581.59
2017-11-25T03:56:55.336Z,100574.86
2017-11-25T03:59:22.938Z,100575.19
2017-11-25T04:01:50.869Z,100577.95
2017-11-25T04:04:18.457Z,100579.67
2017-11-25T04:06:46.403Z,100571.44
2017-11-25T04:09:14.046Z,100573.78
2017-11-25T04:11:41.630Z,100564.81
2017-11-25T04:14:09.498Z,100557.83
2017-11-25T04:16:37.121Z,100532.06
2017-11-25T04:19:04.712Z,100527.42
2017-11-25T04:21:32.297Z,100520.36
2017-11-25T04:23:59.934Z,100523.78
2017-11-25T04:26:27.535Z,100525.77
2017-11-25T04:28:55.114Z,100524.83
2017-11-25T04:31:23.035Z,100527.75
2017-11-25T04:33:50.901Z,100525.09
2017-11-25T04:36:18.773Z,100527.84
2017-11-25T04:38:46.407Z,100521.32
2017-11-25T04:41:14.304Z,100509.63
2017-11-25T04:43:42.167Z,100507.73
2017-11-25T04:46:09.801Z,100493.19
2017-11-25T04:48:37.389Z,100501.15
2017-11-25T04:51:05.002Z,100490.19
2017-11-25T04:53:32.629Z,100475.23
2017-11-25T04:56:00.218Z,100470.02
2017-11-25T04:58:27.958Z,100468.36
2017-11-25T05:00:55.611Z,100465.51
2017-11-25T05:03:23.473Z,100467.17
2017-11-25T05:05:51.091Z,100464.24
2017-11-25T05:08:18.722Z,100457.29
2017-11-25T05:10:46.315Z,100452.05
2017-11-25T05:13:13.939Z,100452.83
2017-11-25T05:15:41.556Z,100450.81
2017-11-25T05:18:09.156Z,100446.58
2017-11-25T05:20:36.741Z,100451.25
2017-11-25T05:23:04.366Z,100447.68
2017-11-25T05:25:31.956Z,100439.56
2017-11-25T05:27:59.538Z,100440.31
2017-11-25T05:30:27.465Z,100437.88
2017-11-25T05:32:55.071Z,100437.72
2017-11-25T05:35:22.664Z,100436.94
2017-11-25T05:37:50.294Z,100429.97
2017-11-25T05:40:17.872Z,100433.89
2017-11-25T05:42:45.464Z,100429.32
2017-11-25T05:45:13.089Z,100423.84
2017-11-25T05:47:40.681Z,100410.36
2017-11-25T05:50:08.317Z,100411.47
2017-11-25T05:52:35.950Z,100401.36
2017-11-25T05:55:03.592Z,100404.02
2017-11-25T05:57:31.194Z,100400.67
2017-11-25T05:59:58.838Z,100408.08
2017-11-25T06:02:26.780Z,100398.47
2017-11-25T06:04:54.390Z,100396.56
2017-11-25T06:07:22.025Z,100386.95
2017-11-25T06:09:49.665Z,100388.69
2017-11-25T06:12:17.253Z,100380.11
2017-11-25T06:14:44.875Z,100375.33
2017-11-25T06:17:12.466Z,100376.30
2017-11-25T06:19:40.064Z,100378.06
2017-11-25T06:22:07.701Z,100380.03
2017-11-25T06:24:35.476Z,100378.29
2017-11-25T06:27:03.245Z,100369.99
2017-11-25T06:29:33.189Z,100353.52
2017-11-25T06:32:00.776Z,100350.42
2017-11-25T06:34:29.516Z,100352.52
2017-11-25T06:36:57.404Z,100354.65
2017-11-25T06:39:25.188Z,100340.40
2017-11-25T06:41:52.786Z,100331.45
2017-11-25T06:44:20.508Z,100327.77
2017-11-25T06:46:48.400Z,100322.16
2017-11-25T06:49:15.985Z,100321.30
2017-11-25T06:51:43.849Z,100316.81
2017-11-25T06:54:11.473Z,100306.77
2017-11-25T06:56:39.095Z,100304.61
2017-11-25T06:59:06.720Z,100297.28
2017-11-25T07:01:34.578Z,100286.38
2017-11-25T07:04:02.462Z,100288.03
2017-11-25T07:06:30.156Z,100281.62
2017-11-25T07:08:57.751Z,100276.72
2017-11-25T07:11:25.359Z,100280.30
2017-11-25T07:13:53.019Z,100274.65
2017-11-25T07:16:20.628Z,100273.90
2017-11-25T07:18:48.210Z,100271.77
2017-11-25T07:21:15.837Z,100270.97
2017-11-25T07:23:43.440Z,100266.32
2017-11-25T07:26:11.025Z,100266.12
2017-11-25T07:28:38.649Z,100254.80
2017-11-25T07:31:06.256Z,100262.20
2017-11-25T07:33:34.096Z,100256.99
2017-11-25T07:36:01.774Z,100246.70
2017-11-25T07:38:29.435Z,100234.67
2017-11-25T07:40:57.042Z,100233.31
2017-11-25T07:43:24.677Z,100228.86
2017-11-25T07:45:52.279Z,100227.45
2017-11-25T07:48:20.251Z,100223.83
2017-11-25T07:50:47.885Z,100219.23
2017-11-25T07:53:16.271Z,100219.98
2017-11-25T07:55:44.191Z,100215.28
2017-11-25T07:58:12.530Z,100219.02
2017-11-25T08:00:40.143Z,100219.51
2017-11-25T08:03:07.733Z,100218.05
2017-11-25T08:05:35.349Z,100212.95
2017-11-25T08:08:02.950Z,100207.36
2017-11-25T08:10:30.537Z,100200.72
2017-11-25T08:12:58.201Z,100205.48
2017-11-25T08:15:25.794Z,100198.40
2017-11-25T08:17:53.399Z,100188.23
2017-11-25T08:20:21.294Z,100182.86
2017-11-25T08:22:48.946Z,100176.19
2017-11-25T08:25:16.596Z,100176.14
2017-11-25T08:27:44.227Z,100170.20
2017-11-25T08:30:11.809Z,100164.61
2017-11-25T08:32:39.448Z,100162.86
2017-11-25T08:35:07.065Z,100161.87
2017-11-25T08:37:34.667Z,100167.27
2017-11-25T08:40:02.254Z,100160.74
2017-11-25T08:42:30.040Z,100162.59
2017-11-25T08:44:57.700Z,100162.04
2017-11-25T08:47:25.638Z,100161.70
2017-11-25T08:49:53.313Z,100163.36
2017-11-25T08:52:20.906Z,100170.91
2017-11-25T08:54:48.519Z,100175.27
2017-11-25T08:57:16.161Z,100166.52
2017-11-25T08:59:43.772Z,100165.44
2017-11-25T09:02:11.382Z,100166.65
2017-11-25T09:04:39.021Z,100165.44
2017-11-25T09:07:06.656Z,100168.88
2017-11-25T09:09:34.249Z,100165.00
2017-11-25T09:12:01.882Z,100163.27
2017-11-25T09:14:29.490Z,100154.85
2017-11-25T09:16:57.121Z,100160.03
2017-11-25T09:19:24.762Z,100158.09
2017-11-25T09:21:52.706Z,100160.24
2017-11-25T09:24:20.313Z,100159.91
2017-11-25T09:26:47.954Z,100149.16
2017-11-25T09:29:15.560Z,100155.08
2017-11-25T09:31:43.464Z,100148.91
2017-11-25T09:34:11.428Z,100148.75
2017-11-25T09:36:39.038Z,100145.79
2017-11-25T09:39:06.715Z,100141.86
2017-11-25T09:41:34.641Z,100144.30
2017-11-25T09:44:02.319Z,100141.77
2017-11-25T09:46:29.997Z,100134.69
2017-11-25T09:48:57.726Z,100131.16
2017-11-25T09:51:25.315Z,100125.88
2017-11-25T09:53:53.481Z,100124.75
2017-11-25T09:56:21.134Z,100131.39
2017-11-25T09:58:48.768Z,100129.70
2017-11-25T10:01:16.369Z,100130.53
2017-11-25T10:03:44.003Z,100125.00
2017-11-25T10:06:12.668Z,100133.68
2017-11-25T10:08:40.422Z,100124.09
2017-11-25T10:11:08.330Z,100124.78
2017-11-25T10:13:35.934Z,100116.82
2017-11-25T10:16:03.545Z,100127.66
2017-11-25T10:18:31.206Z,100118.48
2017-11-25T10:20:58.845Z,100115.71
2017-11-25T10:23:26.444Z,100116.27
2017-11-25T10:25:54.083Z,100121.35
2017-11-25T10:28:21.692Z,100115.66
2017-11-25T10:30:49.460Z,100114.08
2017-11-25T10:33:17.610Z,100112.34
2017-11-25T10:35:45.463Z,100112.02
2017-11-25T10:38:13.157Z,100122.73
2017-11-25T10:40:41.118Z,100118.23
2017-11-25T10:43:09.529Z,100118.98
2017-11-25T10:45:37.280Z,100122.66
2017-11-25T10:48:05.148Z,100130.45
2017-11-25T10:50:37.082Z,100116.57
2017-11-25T10:53:05.561Z,100127.88
2017-11-25T10:55:35.333Z,100124.45
2017-11-25T10:58:05.474Z,100130.84
2017-11-25T11:00:33.318Z,100134.92
2017-11-25T11:03:02.781Z,100128.73
2017-11-25T11:05:31.100Z,100135.02
2017-11-25T11:07:59.580Z,100134.67
2017-11-25T11:10:28.351Z,100127.97
2017-11-25T11:12:57.350Z,100135.02
2017-11-25T11:15:25.803Z,100132.80
2017-11-25T11:17:54.252Z,100132.13
2017-11-25T11:20:23.145Z,100127.59
2017-11-25T11:22:51.632Z,100133.30
2017-11-25T11:25:19.863Z,100135.20
2017-11-25T11:27:48.644Z,100137.40
2017-11-25T11:30:20.083Z,100143.12
2017-11-25T11:32:48.155Z,100141.20
2017-11-25T11:35:15.813Z,100138.73
2017-11-25T11:37:44.495Z,100143.45
2017-11-25T11:40:12.082Z,100140.39
2017-11-25T11:42:39.877Z,100146.63
2017-11-25T11:45:07.562Z,100153.42
2017-11-25T11:47:35.150Z,100150.61
2017-11-25T11:50:03.256Z,100145.48
2017-11-25T11:52:31.027Z,100146.74
2017-11-25T11:55:01.278Z,100145.48
2017-11-25T11:57:30.197Z,100149.16
2017-11-25T11:59:57.892Z,100143.36
2017-11-25T12:02:25.475Z,100146.48
2017-11-25T12:04:53.092Z,100152.72
2017-11-25T12:07:20.750Z,100153.95
2017-11-25T12:09:48.358Z,100147.67
2017-11-25T12:12:16.070Z,100151.70
2017-11-25T12:14:43.726Z,100160.01
2017-11-25T12:17:11.320Z,100158.91
2017-11-25T12:19:38.893Z,100168.11
2017-11-25T12:22:07.642Z,100167.44
2017-11-25T12:24:35.805Z,100170.67
2017-11-25T12:27:04.716Z,100177.69
2017-11-25T12:29:34.563Z,100175.45
2017-11-25T12:32:03.519Z,100183.02
2017-11-25T12:34:32.143Z,100183.66
2017-11-25T12:36:59.826Z,100178.95
2017-11-25T12:39:29.002Z,100173.16
2017-11-25T12:41:57.193Z,100164.79
2017-11-25T12:44:26.390Z,100164.84
2017-11-25T12:46:54.691Z,100179.83
2017-11-25T12:49:23.771Z,100174.71
2017-11-25T12:51:57.017Z,100181.16
2017-11-25T12:54:25.115Z,100188.36
2017-11-25T12:56:56.414Z,100180.16
2017-11-25T12:59:27.173Z,100178.34
2017-11-25T13:01:55.090Z,100178.52
2017-11-25T13:04:26.516Z,100178.00
2017-11-25T13:06:55.831Z,100187.61
2017-11-25T13:09:23.897Z,100189.82
2017-11-25T13:11:51.617Z,100193.72
2017-11-25T13:14:19.696Z,100185.77
2017-11-25T13:16:47.475Z,100189.06
2017-11-25T13:19:15.337Z,100183.09
2017-11-25T13:21:42.961Z,100187.52
2017-11-25T13:24:13.022Z,100205.70
2017-11-25T13:26:41.385Z,100204.75
2017-11-25T13:29:10.366Z,100217.89
2017-11-25T13:31:38.762Z,100213.66
2017-11-25T13:34:07.522Z,100215.29
2017-11-25T13:36:35.954Z,100220.33
2017-11-25T13:39:03.626Z,100238.56
2017-11-25T13:41:35.047Z,100238.25
2017-11-25T13:44:04.023Z,100262.09
2017-11-25T13:46:32.905Z,100272.30
2017-11-25T13:49:01.656Z,100278.95
2017-11-25T13:51:31.710Z,100278.92
2017-11-25T13:54:01.123Z,100280.31
2017-11-25T13:56:29.452Z,100279.75
2017-11-25T13:58:57.219Z,100278.34
2017-11-25T14:01:25.072Z,100270.98
2017-11-25T14:03:53.298Z,100272.03
2017-11-25T14:06:20.958Z,100277.32
2017-11-25T14:08:48.759Z,100274.14
2017-11-25T14:11:17.214Z,100270.95
2017-11-25T14:13:44.961Z,100272.50
2017-11-25T14:16:12.562Z,100283.43
2017-11-25T14:18:40.159Z,100302.86
2017-11-25T14:21:07.781Z,100305.05
2017-11-25T14:23:35.669Z,100299.59
2017-11-25T14:26:03.293Z,100290.41
2017-11-25T14:28:30.910Z,100300.03
2017-11-25T14:30:58.524Z,100302.22
2017-11-25T14:33:26.914Z,100298.25
2017-11-25T14:35:55.009Z,100299.49
2017-11-25T14:38:23.545Z,100304.20
2017-11-25T14:40:52.060Z,100310.02
2017-11-25T14:43:19.750Z,100315.50
2017-11-25T14:45:50.746Z,100321.19
2017-11-25T14:48:23.526Z,100321.19
2017-11-25T14:50:51.390Z,100324.61
2017-11-25T14:53:20.223Z,100334.58
2017-11-25T14:55:51.214Z,100327.63
2017-11-25T14:58:19.828Z,100333.31
2017-11-25T15:00:51.834Z,100333.80
2017-11-25T15:03:20.397Z,100335.91
2017-11-25T15:05:48.020Z,100341.31
2017-11-25T15:08:15.615Z,100347.79
2017-11-25T15:10:43.249Z,100366.72
2017-11-25T15:13:10.859Z,100370.64
2017-11-25T15:15:38.601Z,100371.94
2017-11-25T15:18:06.258Z,100372.23
2017-11-25T15:20:34.397Z,100378.92
2017-11-25T15:23:02.194Z,100389.67
2017-11-25T15:25:30.837Z,100385.80
2017-11-25T15:27:58.473Z,100387.39
2017-11-25T15:30:26.067Z,100396.23
2017-11-25T15:32:56.076Z,100404.44
2017-11-25T15:35:23.710Z,100411.83
2017-11-25T15:37:51.455Z,100414.97
2017-11-25T15:40:19.077Z,100425.45
2017-11-25T15:42:47.004Z,100426.28
2017-11-25T15:45:14.585Z,100438.55
2017-11-25T15:47:42.273Z,100432.21
2017-11-25T15:50:11.851Z,100436.54
2017-11-25T15:52:39.803Z,100440.30
2017-11-25T15:55:08.147Z,100449.98
2017-11-25T15:57:35.766Z,100456.69
2017-11-25T16:00:03.380Z,100456.76
2017-11-25T16:02:30.998Z,100463.50
2017-11-25T16:04:58.712Z,100468.45
2017-11-25T16:07:26.431Z,100474.86
2017-11-25T16:09:54.069Z,100477.29
2017-11-25T16:12:21.732Z,100486.92
2017-11-25T16:14:50.481Z,100489.33
2017-11-25T16:17:18.795Z,100497.41
2017-11-25T16:19:46.453Z,100496.44
2017-11-25T16:22:14.100Z,100505.52
2017-11-25T16:24:42.712Z,100506.44
2017-11-25T16:27:10.358Z,100499.13
2017-11-25T16:29:37.960Z,100507.68
2017-11-25T16:32:05.617Z,100506.50
2017-11-25T16:34:33.553Z,100508.34
2017-11-25T16:37:01.160Z,100502.49
2017-11-25T16:39:28.811Z,100508.67
2017-11-25T16:41:56.799Z,100513.97
2017-11-25T16:44:24.424Z,100508.09
2017-11-25T16:46:52.106Z,100514.48
2017-11-25T16:49:19.835Z,100511.77
2017-11-25T16:51:47.488Z,100513.65
2017-11-25T16:54:18.261Z,100515.84
2017-11-25T16:56:45.892Z,100512.86
2017-11-25T16:59:13.574Z,100512.05
2017-11-25T17:01:41.223Z,100511.73
2017-11-25T17:04:08.869Z,100517.20
2017-11-25T17:06:36.563Z,100521.94
2017-11-25T17:09:04.222Z,100527.72
2017-11-25T17:11:31.849Z,100528.19
2017-11-25T17:14:00.480Z,100532.01
2017-11-25T17:16:28.551Z,100527.77
2017-11-25T17:18:56.172Z,100529.58
2017-11-25T17:21:23.751Z,100533.05
2017-11-25T17:27:43.978Z,100539.33
2017-11-25T17:30:11.687Z,100548.52
2017-11-25T17:33:39.940Z,100552.14
2017-11-25T17:36:07.561Z,100562.16
2017-11-25T17:38:37.628Z,100558.23
2017-11-25T17:41:05.230Z,100566.72
2017-11-25T17:43:35.271Z,100572.40
2017-11-25T17:48:48.605Z,100578.80
2017-11-25T17:51:16.197Z,100578.59
2017-11-25T17:53:45.191Z,100581.34
2017-11-25T17:56:14.102Z,100587.26
2017-11-25T17:58:43.019Z,100593.14
2017-11-25T18:01:13.361Z,100595.55
2017-11-25T18:03:41.078Z,100598.36
2017-11-25T18:06:09.047Z,100604.24
2017-11-25T18:08:37.195Z,100607.41
2017-11-25T18:11:04.823Z,100605.36
2017-11-25T18:13:32.420Z,100609.18
2017-11-25T18:16:00.083Z,100613.67
2017-11-25T18:18:27.682Z,100617.47
2017-11-25T18:20:55.282Z,100623.21
2017-11-25T18:23:22.953Z,100620.98
2017-11-25T18:25:50.552Z,100625.96
2017-11-25T18:28:18.154Z,100630.20
2017-11-25T18:30:46.664Z,100636.99
2017-11-25T18:33:14.567Z,100642.25
2017-11-25T18:35:43.153Z,100643.81
2017-11-25T18:38:10.791Z,100647.92
2017-11-25T18:40:38.431Z,100647.75
2017-11-25T18:43:06.049Z,100648.83
2017-11-25T18:45:33.698Z,100655.23
2017-11-25T18:48:01.298Z,100658.19
2017-11-25T18:50:32.988Z,100665.44
2017-11-25T18:53:00.641Z,100668.61
2017-11-25T18:55:29.468Z,100670.97
2017-11-25T18:57:57.060Z,100679.36
2017-11-25T19:00:25.228Z,100676.75
2017-11-25T19:02:52.830Z,100680.93
2017-11-25T19:05:20.777Z,100690.64
2017-11-25T19:07:48.528Z,100687.23
2017-11-25T19:10:16.449Z,100683.33
2017-11-25T19:12:44.355Z,100689.91
2017-11-25T19:15:15.196Z,100692.21
2017-11-25T19:17:42.793Z,100698.06
2017-11-25T19:20:10.422Z,100700.61
2017-11-25T19:22:38.080Z,100708.05
2017-11-25T19:25:05.661Z,100708.09
2017-11-25T19:27:33.306Z,100718.98
2017-11-25T19:30:03.481Z,100721.81
2017-11-25T19:32:31.220Z,100727.84
2017-11-25T19:34:58.862Z,100724.28
2017-11-25T19:37:26.626Z,100730.31
2017-11-25T19:39:54.268Z,100734.11
2017-11-25T19:42:22.140Z,100729.90
2017-11-25T19:44:49.918Z,100738.19
2017-11-25T19:47:17.663Z,100751.53
2017-11-25T19:49:45.358Z,100753.23
2017-11-25T19:52:13.061Z,100758.27
2017-11-25T19:54:40.658Z,100759.72
2017-11-25T19:57:08.258Z,100764.84
2017-11-25T19:59:35.920Z,100765.41
2017-11-25T20:02:03.523Z,100767.14
2017-11-25T20:04:31.113Z,100771.69
2017-11-25T20:06:58.772Z,100773.08
2017-11-25T20:09:26.631Z,100772.42
2017-11-25T20:11:54.290Z,100772.13
2017-11-25T20:14:21.934Z,100776.52
2017-11-25T20:16:49.529Z,100781.50
2017-11-25T20:19:17.155Z,100778.25
2017-11-25T20:21:45.050Z,100784.27
2017-11-25T20:24:13.544Z,100787.34
2017-11-25T20:26:41.140Z,100789.56
2017-11-25T20:29:08.758Z,100794.61
2017-11-25T20:31:36.356Z,100789.87
2017-11-25T20:34:03.945Z,100794.51
2017-11-25T20:36:31.569Z,100800.36
2017-11-25T20:38:59.184Z,100810.19
2017-11-25T20:41:26.849Z,100809.14
2017-11-25T20:43:54.864Z,100811.93
2017-11-25T20:46:22.441Z,100818.25
2017-11-25T20:48:50.042Z,100816.09
2017-11-25T20:51:17.674Z,100820.77
2017-11-25T20:53:45.260Z,100827.59
2017-11-25T20:56:12.850Z,100823.48
2017-11-25T20:58:40.481Z,100827.72
2017-11-25T21:01:08.067Z,100829.84
2017-11-25T21:03:35.666Z,100836.39
2017-11-25T21:06:03.300Z,100828.69
2017-11-25T21:08:30.896Z,100840.36
2017-11-25T21:10:58.486Z,100834.88
2017-11-25T21:13:27.009Z,100836.48
2017-11-25T21:15:54.610Z,100840.94
2017-11-25T21:18:22.207Z,100840.12
2017-11-25T21:20:50.089Z,100842.48
2017-11-25T21:23:17.694Z,100841.64
2017-11-25T21:25:45.281Z,100842.96
2017-11-25T21:28:12.919Z,100842.70
2017-11-25T21:30:40.516Z,100844.51
2017-11-25T21:33:08.143Z,100847.91
2017-11-25T21:35:35.772Z,100846.18
2017-11-25T21:38:03.361Z,100854.32
2017-11-25T21:40:30.963Z,100853.81
2017-11-25T21:42:58.603Z,100857.52
2017-11-25T21:45:26.191Z,100857.08
2017-11-25T21:47:54.285Z,100861.04
2017-11-25T21:50:21.949Z,100859.52
2017-11-25T21:52:50.531Z,100860.14
2017-11-25T21:55:18.117Z,100855.40
2017-11-25T21:57:45.760Z,100862.14
2017-11-25T22:00:13.624Z,100869.94
2017-11-25T22:02:41.486Z,100868.55
2017-11-25T22:05:09.539Z,100867.14
2017-11-25T22:07:37.139Z,100868.30
2017-11-25T22:10:04.713Z,100867.76
2017-11-25T22:12:32.347Z,100865.89
2017-11-25T22:15:00.210Z,100860.09
2017-11-25T22:17:27.819Z,100866.82
2017-11-25T22:19:55.545Z,100869.27
2017-11-25T22:22:23.130Z,100873.11
2017-11-25T22:24:50.717Z,100868.92
2017-11-25T22:27:18.390Z,100876.62
2017-11-25T22:29:45.992Z,100877.75
2017-11-25T22:32:13.859Z,100869.17
2017-11-25T22:34:41.484Z,100875.69
2017-11-25T22:37:09.082Z,100880.80
2017-11-25T22:39:36.673Z,100900.02
2017-11-25T22:42:04.342Z,100897.33
2017-11-25T22:44:31.981Z,100898.16
2017-11-25T22:46:59.582Z,100906.92
2017-11-25T22:49:27.221Z,100904.58
2017-11-25T22:51:54.814Z,100911.21
2017-11-25T22:54:22.418Z,100914.52
2017-11-25T22:56:50.088Z,100914.51
2017-11-25T22:59:17.698Z,100912.22
2017-11-25T23:01:45.301Z,100909.88
2017-11-25T23:04:12.955Z,100923.28
2017-11-25T23:06:40.540Z,100922.61
2017-11-25T23:09:08.118Z,100925.80
2017-11-25T23:11:35.749Z,100925.98
2017-11-25T23:14:03.614Z,100928.08
2017-11-25T23:16:31.214Z,100928.55
2017-11-25T23:18:58.852Z,100929.39
2017-11-25T23:21:26.447Z,100935.77
2017-11-25T23:23:54.532Z,100928.37
2017-11-25T23:26:22.158Z,100924.52
2017-11-25T23:28:49.750Z,100923.50
2017-11-25T23:31:17.766Z,100924.05
2017-11-25T23:33:45.399Z,100927.89
2017-11-25T23:36:12.984Z,100928.25
2017-11-25T23:38:40.577Z,100933.71
2017-11-25T23:41:08.202Z,100934.02
2017-11-25T23:43:35.786Z,100938.75
2017-11-25T23:46:03.655Z,100937.63
2017-11-25T23:48:31.290Z,100941.95
2017-11-25T23:50:59.180Z,100947.71
2017-11-25T23:53:27.047Z,100952.16
2017-11-25T23:55:54.690Z,100949.86
2017-11-25T23:58:22.296Z,100947.23
